This is the latest recevied weather packets stored in our database for station/object K0QJ. If no packets are shown the sender has not sent any weather packets the latest 10 day(s).
| Time | Temp. | Humidity | Pressure | Rain* | Wind** | Luminosity | Snow |
|---|---|---|---|---|---|---|---|
| 1778092425 | 13.89° C | 38% | 1017.9 hPa | 0 mm | - | 775 W/m² | - |
| 1778092123 | 13.89° C | 37% | 1017.7 hPa | 0 mm | - | 617 W/m² | - |
| 1778091820 | 13.89° C | 39% | 1017.8 hPa | 0 mm | - | 895 W/m² | - |
| 1778091517 | 13.33° C | 39% | 1018.1 hPa | 0 mm | - | 425 W/m² | - |
| 1778091215 | 13.33° C | 41% | 1018.2 hPa | 0 mm | - | 390 W/m² | - |
| 1778090912 | 13.33° C | 39% | 1017.9 hPa | 0 mm | - | 297 W/m² | - |
| 1778090608 | 12.78° C | 40% | 1018.1 hPa | 0 mm | - | 236 W/m² | - |
| 1778090304 | 13.33° C | 40% | 1017.9 hPa | 0 mm | - | 235 W/m² | - |
| 1778090001 | 13.33° C | 39% | 1017.9 hPa | 0 mm | - | 237 W/m² | - |
| 1778089693 | 13.33° C | 42% | 1018.2 hPa | 0 mm | - | 257 W/m² | - |
| 1778089390 | 13.33° C | 42% | 1018.2 hPa | 0 mm | - | 247 W/m² | - |
| 1778089087 | 12.78° C | 42% | 1018.2 hPa | 0 mm | - | 225 W/m² | - |
| 1778088784 | 12.78° C | 39% | 1017.9 hPa | 0 mm | - | 220 W/m² | - |
| 1778088481 | 13.33° C | 37% | 1017.9 hPa | 0 mm | - | 237 W/m² | - |
| 1778088177 | 13.89° C | 39% | 1018 hPa | 0 mm | - | 306 W/m² | - |
| 1778087875 | 14.44° C | 38% | 1017.9 hPa | 0 mm | - | 640 W/m² | - |
| 1778087572 | 15° C | 40% | 1018 hPa | 0 mm | - | 415 W/m² | - |
| 1778087270 | 15° C | 40% | 1017.9 hPa | 0 mm | - | 793 W/m² | - |
| 1778086966 | 13.89° C | 40% | 1018.1 hPa | 0 mm | - | 472 W/m² | - |
| 1778086665 | 14.44° C | 40% | 1018.2 hPa | 0 mm | - | 371 W/m² | - |
| 1778086362 | 13.89° C | 39% | 1018.2 hPa | 0 mm | - | 380 W/m² | - |
| 1778086058 | 13.89° C | 43% | 1018.3 hPa | 0 mm | - | 583 W/m² | - |
| 1778085755 | 14.44° C | 40% | 1017.9 hPa | 0 mm | - | 647 W/m² | - |
| 1778085452 | 12.78° C | 41% | 1017.9 hPa | 0 mm | - | 1018 W/m² | - |
| 1778085147 | 12.78° C | 42% | 1018 hPa | 0 mm | - | 395 W/m² | - |
* Rain latest hour (hover to see other rain measurements)
** Current wind speed in m/s (hover to see current wind gust speed)